Aaronsburg, Pennsylvania
Current Conditions -  °F | °C
As of 3:15 AM on Friday 28 Nov 2014 (Local Time) from KUNV Reporting Station
Overcast Overcast  
Wind Chill: 19°   Ceiling: 3200
Heat Index: 29°   Visibility: 10mi
Dew Point: 21°   Wind: 14mph
Humidity: 72%   Direction: 280°W
Pressure: 30.13"   Gusts: 20mph
Location:  40.9°N, 77.45°W
Report Text: KUNV 280815Z AUTO 28012G17KT 10SM OVC032 M01/M06 A3013 RMK AO2 T10151059
Loading
Personal Weather Stations






























Interactive Weather Map New forecast layout! Learn more

10-Day Weather Forecast

Advertisements
Track Severe Weather on mobile